PATL

Details ICAO PATL (TLJ)
Name TATALINA LRRS
Region USA (Alaska)
Timezone America/Anchorage (UTC-9.0)
Plans Departing 0
Arriving 1
Stats Elevation 964 ft / 294 m (AMSL)
Location 62.894444° -155.976664°
Runways 1
Magnetic Variation 14.178° E
Sunrise 2017-12-12 19:51:34 UTC / 2017-12-12 10:51:34 Local
Sunset 2017-12-13 00:46:58 UTC / 2017-12-12 15:46:58 Local
Advertisement - Login to hide

Runways

ID Width Length Bearing (true) Bearing (mag) Surface Threshold Offset Overrun Length
16 150 ft / 46 m 3,853 ft / 1,174 m 178.64° 164.46° Gravel 0 ft / 0 m 0 ft / 0 m
34 150 ft / 46 m 3,853 ft / 1,174 m 358.64° 344.46° Gravel 0 ft / 0 m 0 ft / 0 m

Map

Weather


0- 5 10 15 20 25 30 35+ Temperature / ° C

Clouds and Precipitation
Forecast for 2017-12-13 00:00 UTC. Updated an hour ago

Ground ~20,000 ft ~40,000 ft Winds

METAR

PATL 121955Z AUTO 06004KT 10SM FEW110 BKN150 02/M02 A2955

TAF

Not found

Frequencies

Unicom 126.20 MHz CTAF/UNICOM
Warning: Do not use this data for real-world aviation or navigation. No guarantee of current accuracy is given.